Time;durP1;ratioP1;P1;durP2;ratioP2;P2;SDS_P1;SDS_P2;PMS_P1;PMS_P2;Temp;Humidity;BMP_temperature;BMP_pressure;BME280_temperature;BME280_humidity;BME280_pressure;Samples;Min_cycle;Max_cycle;Signal;HPM_P1;HPM_P2
2023/04/17 00:02:24;;;;;;;50.13;25.50;;;8.50;99.90;;;;;;5066437;28;20025;-62
2023/04/17 00:04:51;;;;;;;55.53;26.30;;;8.50;99.90;;;;;;5048325;28;20067;-61
2023/04/17 00:07:21;;;;;;;56.75;27.80;;;8.50;99.90;;;;;;5057141;28;20043;-61
2023/04/17 00:09:47;;;;;;;57.55;26.83;;;8.50;99.90;;;;;;5079819;28;20150;-61
2023/04/17 00:12:12;;;;;;;57.55;27.50;;;8.50;99.90;;;;;;5066798;28;20035;-61
2023/04/17 00:14:38;;;;;;;51.80;27.20;;;8.40;99.90;;;;;;5066750;28;20035;-62
2023/04/17 00:17:04;;;;;;;55.15;27.67;;;8.50;99.90;;;;;;5058014;28;20482;-62
2023/04/17 00:19:29;;;;;;;57.65;28.45;;;8.50;99.90;;;;;;5071764;28;20374;-61
2023/04/17 00:21:55;;;;;;;57.80;27.70;;;8.50;99.90;;;;;;5072719;28;20097;-61
2023/04/17 00:24:20;;;;;;;57.47;28.30;;;8.50;99.90;;;;;;5057076;28;20092;-61
2023/04/17 00:26:46;;;;;;;59.33;28.13;;;8.50;99.90;;;;;;5072697;28;20390;-62
2023/04/17 00:29:11;;;;;;;60.10;28.88;;;8.50;99.90;;;;;;5074538;28;20033;-61
2023/04/17 00:31:37;;;;;;;58.28;26.80;;;8.50;99.90;;;;;;5063215;28;20035;-61
2023/04/17 00:34:02;;;;;;;57.83;27.40;;;8.50;99.90;;;;;;5076685;28;20526;-62
2023/04/17 00:36:31;;;;;;;61.05;27.25;;;8.50;99.90;;;;;;5079420;28;20040;-61
2023/04/17 00:38:57;;;;;;;62.33;29.42;;;8.50;99.90;;;;;;5090210;28;20036;-61
2023/04/17 00:41:23;;;;;;;61.10;26.70;;;8.50;99.90;;;;;;5072069;28;20044;-62
2023/04/17 00:43:49;;;;;;;61.53;27.75;;;8.50;99.90;;;;;;5079557;28;20043;-61
2023/04/17 00:46:15;;;;;;;63.58;28.30;;;8.40;99.90;;;;;;5081237;28;20120;-61
2023/04/17 00:48:43;;;;;;;67.45;29.58;;;8.40;99.90;;;;;;5071033;28;20036;-62
2023/04/17 00:51:08;;;;;;;69.25;30.23;;;8.50;99.90;;;;;;5074209;28;20032;-61
2023/04/17 00:53:35;;;;;;;69.15;29.98;;;8.40;99.90;;;;;;5087412;28;20039;-62
2023/04/17 00:56:05;;;;;;;66.88;29.92;;;8.50;99.90;;;;;;5071931;28;20474;-61
2023/04/17 00:58:32;;;;;;;71.75;30.67;;;8.40;99.90;;;;;;5070660;28;20037;-61
2023/04/17 01:00:58;;;;;;;71.80;30.73;;;8.40;99.90;;;;;;5080663;28;20070;-61
2023/04/17 01:03:24;;;;;;;72.55;31.58;;;8.50;99.90;;;;;;5060495;28;20028;-61
2023/04/17 01:05:51;;;;;;;69.75;30.42;;;8.40;99.90;;;;;;5081826;28;20043;-61
2023/04/17 01:08:17;;;;;;;70.00;31.20;;;8.40;99.90;;;;;;5087166;28;20477;-61
2023/04/17 01:10:43;;;;;;;69.07;29.80;;;8.40;99.90;;;;;;5071383;28;20041;-61
2023/04/17 01:13:08;;;;;;;73.65;30.15;;;8.40;99.90;;;;;;5056334;28;20051;-61
2023/04/17 01:15:35;;;;;;;68.20;30.00;;;8.40;99.90;;;;;;5080634;28;20409;-62
2023/04/17 01:18:01;;;;;;;69.50;29.77;;;8.40;99.90;;;;;;5076102;28;20040;-62
2023/04/17 01:20:30;;;;;;;75.43;31.15;;;8.40;99.90;;;;;;5074591;28;20028;-61
2023/04/17 01:22:59;;;;;;;78.57;31.98;;;8.40;99.90;;;;;;5080081;28;20101;-62
2023/04/17 01:25:26;;;;;;;74.30;31.48;;;8.40;99.90;;;;;;5053283;28;20155;-61
2023/04/17 01:27:55;;;;;;;73.28;31.58;;;8.40;99.90;;;;;;5071089;28;20051;-61
2023/04/17 01:30:20;;;;;;;76.80;33.00;;;8.40;99.90;;;;;;5066051;28;20036;-61
2023/04/17 01:32:46;;;;;;;76.80;30.13;;;8.40;99.90;;;;;;5064361;28;20029;-61
2023/04/17 01:35:11;;;;;;;74.50;30.85;;;8.40;99.90;;;;;;5083742;28;20557;-62
2023/04/17 01:37:37;;;;;;;81.63;32.28;;;8.40;99.90;;;;;;5068299;28;20048;-61
2023/04/17 01:40:06;;;;;;;77.95;32.90;;;8.40;99.90;;;;;;5075434;28;20037;-61
2023/04/17 01:42:35;;;;;;;82.15;33.28;;;8.40;99.90;;;;;;5061171;28;20120;-61
2023/04/17 01:45:01;;;;;;;73.50;31.75;;;8.40;99.90;;;;;;5063146;28;20047;-61
2023/04/17 01:47:26;;;;;;;83.38;32.65;;;8.40;99.90;;;;;;5087807;22;20040;-66
2023/04/17 01:49:52;;;;;;;82.57;33.97;;;8.40;99.90;;;;;;5054132;28;20041;-63
2023/04/17 01:52:17;;;;;;;75.35;32.22;;;8.30;99.90;;;;;;5056522;28;20031;-63
2023/04/17 01:54:43;;;;;;;79.72;33.65;;;8.40;99.90;;;;;;5064855;28;20067;-63
2023/04/17 01:57:08;;;;;;;79.47;32.40;;;8.40;99.90;;;;;;5048384;28;20547;-63
2023/04/17 01:59:34;;;;;;;77.68;32.20;;;8.40;99.90;;;;;;5052919;28;20044;-63
2023/04/17 02:01:59;;;;;;;81.20;33.88;;;8.40;99.90;;;;;;5049305;28;20485;-64
2023/04/17 02:04:25;;;;;;;71.15;30.98;;;8.40;99.90;;;;;;5052523;28;20037;-64
2023/04/17 02:06:51;;;;;;;80.30;32.92;;;8.40;99.90;;;;;;5051790;28;20040;-64
2023/04/17 02:09:16;;;;;;;82.68;35.00;;;8.40;99.90;;;;;;5059468;28;20059;-64
2023/04/17 02:11:42;;;;;;;78.03;32.88;;;8.40;99.90;;;;;;5059564;28;20051;-64
2023/04/17 02:14:07;;;;;;;78.18;33.00;;;8.40;99.90;;;;;;5047286;28;20423;-64
2023/04/17 02:16:33;;;;;;;80.85;33.50;;;8.40;99.90;;;;;;5033722;28;20391;-65
2023/04/17 02:18:58;;;;;;;80.80;33.08;;;8.40;99.90;;;;;;5049016;28;20060;-64
2023/04/17 02:21:26;;;;;;;79.88;33.35;;;8.40;99.90;;;;;;5051975;28;20091;-65
2023/04/17 02:23:52;;;;;;;76.20;33.17;;;8.50;99.90;;;;;;5058393;28;20571;-65
2023/04/17 02:26:18;;;;;;;82.60;33.92;;;8.40;99.90;;;;;;5056334;28;20406;-65
2023/04/17 02:28:44;;;;;;;87.57;36.00;;;8.40;99.90;;;;;;5066330;28;20052;-65
2023/04/17 02:31:10;;;;;;;77.15;32.85;;;8.40;99.90;;;;;;5064282;28;20033;-65
2023/04/17 02:33:37;;;;;;;83.15;34.25;;;8.40;99.90;;;;;;5047259;28;20036;-64
2023/04/17 02:36:06;;;;;;;77.28;32.20;;;8.40;99.90;;;;;;5059314;28;20119;-65
2023/04/17 02:38:32;;;;;;;82.80;35.05;;;8.40;99.90;;;;;;5054356;28;20049;-65
2023/04/17 02:40:58;;;;;;;81.50;34.35;;;8.40;99.90;;;;;;5059752;28;20426;-65
2023/04/17 02:43:24;;;;;;;77.25;33.00;;;8.40;99.90;;;;;;5057971;28;20414;-65
2023/04/17 02:45:50;;;;;;;74.90;34.28;;;8.40;99.90;;;;;;5033206;28;20069;-65
2023/04/17 02:48:16;;;;;;;77.20;33.28;;;8.40;99.90;;;;;;5050549;28;20044;-65
2023/04/17 02:50:41;;;;;;;85.43;36.28;;;8.40;99.90;;;;;;5036623;28;20047;-64
2023/04/17 02:53:07;;;;;;;77.35;34.50;;;8.40;99.90;;;;;;5052130;28;20402;-65
2023/04/17 02:55:33;;;;;;;88.93;36.20;;;8.40;99.90;;;;;;5051603;28;20072;-64
2023/04/17 02:57:58;;;;;;;84.70;34.83;;;8.40;99.90;;;;;;5048700;28;20079;-65
2023/04/17 03:00:25;;;;;;;86.90;35.72;;;8.40;99.90;;;;;;5047595;28;20048;-65
2023/04/17 03:02:51;;;;;;;83.07;35.10;;;8.40;99.90;;;;;;5044378;28;20048;-65
2023/04/17 03:05:19;;;;;;;87.40;36.17;;;8.40;99.90;;;;;;5050891;28;20504;-65
2023/04/17 03:07:44;;;;;;;78.93;34.53;;;8.40;99.90;;;;;;5058550;28;20469;-65
2023/04/17 03:10:10;;;;;;;90.90;36.38;;;8.40;99.90;;;;;;5050042;28;20064;-65
2023/04/17 03:12:36;;;;;;;95.15;37.60;;;8.40;99.90;;;;;;5046939;28;20033;-65
2023/04/17 03:15:01;;;;;;;86.30;35.78;;;8.40;99.90;;;;;;5050231;28;20392;-65
2023/04/17 03:17:27;;;;;;;92.43;36.38;;;8.40;99.90;;;;;;5045559;28;20056;-64
2023/04/17 03:19:52;;;;;;;80.95;34.75;;;8.40;99.90;;;;;;5050952;28;20039;-65
2023/04/17 03:22:18;;;;;;;93.78;36.78;;;8.40;99.90;;;;;;5067822;28;20029;-65
2023/04/17 03:24:43;;;;;;;86.10;35.80;;;8.40;99.90;;;;;;5053647;28;20116;-64
2023/04/17 03:27:09;;;;;;;86.35;35.60;;;8.40;99.90;;;;;;5051203;28;20434;-65
2023/04/17 03:29:35;;;;;;;84.00;36.72;;;8.40;99.90;;;;;;5040189;28;20039;-65
2023/04/17 03:32:00;;;;;;;84.68;34.70;;;8.40;99.90;;;;;;5050635;28;20044;-65
2023/04/17 03:34:27;;;;;;;84.20;35.15;;;8.40;99.90;;;;;;5049255;28;20470;-64
2023/04/17 03:36:53;;;;;;;91.50;36.17;;;8.40;99.90;;;;;;5060086;28;20055;-65
2023/04/17 03:39:19;;;;;;;87.45;35.70;;;8.40;99.90;;;;;;5061523;28;20032;-65
2023/04/17 03:41:45;;;;;;;77.28;33.58;;;8.40;99.90;;;;;;5060553;28;20048;-65
2023/04/17 03:44:11;;;;;;;87.80;37.33;;;8.40;99.90;;;;;;5060367;28;20033;-64
2023/04/17 03:46:37;;;;;;;85.57;36.97;;;8.30;99.90;;;;;;5055517;28;20033;-65
2023/04/17 03:49:02;;;;;;;82.07;33.65;;;8.30;99.90;;;;;;5053415;28;20041;-65
2023/04/17 03:51:28;;;;;;;86.60;37.40;;;8.30;99.90;;;;;;5056927;28;20469;-65
2023/04/17 03:53:54;;;;;;;76.43;32.35;;;8.30;99.90;;;;;;5052459;28;20037;-65
2023/04/17 03:56:20;;;;;;;88.63;37.42;;;8.30;99.90;;;;;;5048759;28;20119;-65
2023/04/17 03:58:45;;;;;;;88.68;35.75;;;8.20;99.90;;;;;;5046287;28;20051;-65
2023/04/17 04:01:13;;;;;;;92.70;38.05;;;8.20;99.90;;;;;;5047903;28;20037;-64
2023/04/17 04:03:39;;;;;;;87.57;36.47;;;8.20;99.90;;;;;;5039004;28;20471;-65
2023/04/17 04:06:06;;;;;;;88.38;37.72;;;8.20;99.90;;;;;;5054879;28;20033;-65
2023/04/17 04:08:32;;;;;;;85.10;36.05;;;8.20;99.90;;;;;;5047172;28;20037;-64
2023/04/17 04:10:59;;;;;;;85.78;35.83;;;8.20;99.90;;;;;;5050561;28;20033;-65
2023/04/17 04:13:25;;;;;;;86.25;37.53;;;8.20;99.90;;;;;;5054930;28;20040;-65
2023/04/17 04:15:50;;;;;;;93.97;38.25;;;8.20;99.90;;;;;;5056195;28;20140;-64
2023/04/17 04:18:16;;;;;;;95.10;39.13;;;8.20;99.90;;;;;;5047813;28;20041;-64
2023/04/17 04:20:41;;;;;;;88.97;38.60;;;8.20;99.90;;;;;;5054984;28;20040;-64
2023/04/17 04:23:07;;;;;;;92.80;37.72;;;8.20;99.90;;;;;;5057499;28;20084;-64
2023/04/17 04:25:33;;;;;;;94.85;37.88;;;8.20;99.90;;;;;;5047947;28;20115;-64
2023/04/17 04:28:00;;;;;;;102.30;40.25;;;8.20;99.90;;;;;;5053725;28;20057;-64
2023/04/17 04:30:26;;;;;;;86.57;35.92;;;8.20;99.90;;;;;;5050411;28;20037;-64
2023/04/17 04:32:51;;;;;;;89.38;37.50;;;8.20;99.90;;;;;;5047924;28;20098;-64
2023/04/17 04:35:17;;;;;;;87.90;34.30;;;8.20;99.90;;;;;;5052412;28;20448;-64
2023/04/17 04:37:45;;;;;;;89.03;36.28;;;8.20;99.90;;;;;;5051712;28;20501;-64
2023/04/17 04:40:13;;;;;;;86.25;36.05;;;8.20;99.90;;;;;;5049970;28;20069;-64
2023/04/17 04:42:40;;;;;;;93.15;39.40;;;8.20;99.90;;;;;;5045690;28;20102;-64
2023/04/17 04:45:07;;;;;;;95.97;38.17;;;8.20;99.90;;;;;;5039132;28;20104;-64
2023/04/17 04:47:33;;;;;;;97.28;37.28;;;8.20;99.90;;;;;;5041755;28;20376;-64
2023/04/17 04:49:59;;;;;;;89.63;35.67;;;8.20;99.90;;;;;;5025317;28;20048;-64
2023/04/17 04:52:25;;;;;;;84.07;35.15;;;8.20;99.90;;;;;;5042364;28;20116;-64
2023/04/17 04:54:51;;;;;;;89.47;36.20;;;8.20;99.90;;;;;;5051478;28;20044;-64
2023/04/17 04:57:17;;;;;;;88.53;34.45;;;8.20;99.90;;;;;;5047079;28;20043;-64
2023/04/17 04:59:42;;;;;;;96.60;35.65;;;8.20;99.90;;;;;;5050143;28;20119;-64
2023/04/17 05:02:08;;;;;;;86.60;32.45;;;8.10;99.90;;;;;;5064770;28;20051;-64
2023/04/17 05:04:33;;;;;;;81.22;34.00;;;8.10;99.90;;;;;;5061941;28;20137;-64
2023/04/17 05:06:59;;;;;;;81.45;32.63;;;8.10;99.90;;;;;;5047270;28;20091;-64
2023/04/17 05:09:25;;;;;;;78.97;33.40;;;8.10;99.90;;;;;;5034220;28;20052;-64
2023/04/17 05:11:53;;;;;;;82.03;33.75;;;8.10;99.90;;;;;;5051749;28;20452;-64
2023/04/17 05:14:19;;;;;;;80.55;33.05;;;8.00;99.90;;;;;;5053509;28;20107;-64
2023/04/17 05:16:44;;;;;;;79.97;32.08;;;8.10;99.90;;;;;;5055131;28;20482;-64
2023/04/17 05:19:10;;;;;;;81.45;32.47;;;8.10;99.90;;;;;;5055153;28;20041;-64
2023/04/17 05:21:36;;;;;;;84.70;32.85;;;8.10;99.90;;;;;;5053895;28;20404;-64
2023/04/17 05:24:01;;;;;;;76.95;31.88;;;8.10;99.90;;;;;;5053730;28;20116;-64
2023/04/17 05:26:27;;;;;;;73.45;31.65;;;8.10;99.90;;;;;;5054004;28;20041;-64
2023/04/17 05:28:52;;;;;;;76.50;31.17;;;8.10;99.90;;;;;;5054543;28;20040;-64
2023/04/17 05:31:18;;;;;;;74.40;30.60;;;8.10;99.90;;;;;;5054675;28;20039;-64
2023/04/17 05:33:44;;;;;;;80.13;32.55;;;8.10;99.90;;;;;;5066189;28;20047;-64
2023/04/17 05:36:09;;;;;;;76.47;31.77;;;8.10;99.90;;;;;;5073856;28;20135;-64
2023/04/17 05:38:35;;;;;;;72.05;29.10;;;8.10;99.90;;;;;;5073392;28;20043;-65
2023/04/17 05:41:00;;;;;;;77.53;31.70;;;8.10;99.90;;;;;;5073129;28;20044;-64
2023/04/17 05:43:26;;;;;;;77.15;32.55;;;8.10;99.90;;;;;;5074139;28;20044;-64
2023/04/17 05:45:52;;;;;;;77.05;31.25;;;8.10;99.90;;;;;;5041165;28;20041;-64
2023/04/17 05:48:18;;;;;;;78.97;30.92;;;8.20;99.90;;;;;;5052634;28;20045;-64
2023/04/17 05:50:43;;;;;;;77.85;32.95;;;8.20;99.90;;;;;;5053624;28;20045;-64
2023/04/17 05:53:09;;;;;;;78.03;32.40;;;8.10;99.90;;;;;;5053712;28;20025;-64
2023/04/17 05:55:35;;;;;;;70.93;30.38;;;8.20;99.90;;;;;;5053891;28;20068;-64
2023/04/17 05:58:01;;;;;;;73.28;31.17;;;8.20;99.90;;;;;;5035149;28;20394;-64
2023/04/17 06:00:27;;;;;;;74.88;31.73;;;8.20;99.90;;;;;;5060066;28;20033;-64
2023/04/17 06:02:53;;;;;;;77.75;31.75;;;8.20;99.90;;;;;;5070017;28;20060;-64
2023/04/17 06:05:20;;;;;;;82.25;32.60;;;8.20;99.90;;;;;;5071843;28;20041;-64
2023/04/17 06:07:46;;;;;;;76.40;32.03;;;8.20;99.90;;;;;;5048601;28;20033;-64
2023/04/17 06:10:11;;;;;;;69.13;30.98;;;8.20;99.90;;;;;;5053526;28;20041;-64
2023/04/17 06:12:37;;;;;;;66.95;29.35;;;8.30;99.90;;;;;;5052136;28;20033;-64
2023/04/17 06:15:03;;;;;;;74.75;33.25;;;8.30;99.90;;;;;;5060247;28;20505;-64
2023/04/17 06:17:29;;;;;;;71.95;31.77;;;8.30;99.90;;;;;;5066003;28;20036;-64
2023/04/17 06:19:55;;;;;;;71.93;31.42;;;8.30;99.90;;;;;;5035774;28;20052;-64
2023/04/17 06:22:21;;;;;;;68.97;30.38;;;8.30;99.90;;;;;;5050158;28;20036;-64
2023/04/17 06:24:47;;;;;;;68.03;30.73;;;8.30;99.90;;;;;;5053419;28;20045;-64
2023/04/17 06:27:12;;;;;;;60.20;28.80;;;8.30;99.90;;;;;;5065612;28;20067;-64
2023/04/17 06:29:38;;;;;;;65.05;30.00;;;8.30;99.90;;;;;;5051671;28;20490;-64
2023/04/17 06:32:05;;;;;;;66.10;28.92;;;8.30;99.90;;;;;;5054811;28;20033;-64
2023/04/17 06:34:30;;;;;;;68.25;28.63;;;8.30;99.90;;;;;;5032948;28;20162;-64
2023/04/17 06:36:57;;;;;;;63.67;29.50;;;8.30;99.90;;;;;;5047344;28;20439;-64
2023/04/17 06:39:23;;;;;;;66.60;30.02;;;8.30;99.90;;;;;;5064660;28;20041;-64
2023/04/17 06:41:49;;;;;;;63.72;29.38;;;8.30;99.90;;;;;;5043853;28;20037;-63
2023/04/17 06:44:15;;;;;;;62.47;28.67;;;8.30;99.90;;;;;;5049070;28;20036;-64
2023/04/17 06:46:41;;;;;;;62.75;28.65;;;8.40;99.90;;;;;;5057998;28;20047;-64
2023/04/17 06:49:06;;;;;;;59.88;27.63;;;8.40;99.90;;;;;;5051107;28;20060;-64
2023/04/17 06:51:32;;;;;;;52.08;27.42;;;8.40;99.90;;;;;;5065188;28;20399;-64
2023/04/17 06:53:58;;;;;;;59.75;28.40;;;8.40;99.90;;;;;;5054866;28;20043;-64
2023/04/17 06:56:24;;;;;;;64.60;28.10;;;8.40;99.90;;;;;;5063533;28;20040;-64
2023/04/17 06:58:52;;;;;;;59.67;27.75;;;8.40;99.90;;;;;;5038664;28;20040;-64
2023/04/17 07:01:18;;;;;;;58.97;28.70;;;8.40;99.90;;;;;;5046299;28;20500;-64
2023/04/17 07:03:45;;;;;;;62.20;28.73;;;8.40;99.90;;;;;;5045514;28;20526;-64
2023/04/17 07:06:11;;;;;;;61.05;28.02;;;8.50;99.90;;;;;;5049181;28;20402;-64
2023/04/17 07:08:37;;;;;;;56.50;28.05;;;8.50;99.90;;;;;;5052323;28;20041;-64
2023/04/17 07:11:02;;;;;;;61.83;28.90;;;8.50;99.90;;;;;;5050139;28;20542;-64
2023/04/17 07:13:30;;;;;;;68.22;29.63;;;8.60;99.90;;;;;;5052555;28;20029;-64
2023/04/17 07:15:57;;;;;;;62.03;28.92;;;8.60;99.90;;;;;;5053902;28;20509;-64
2023/04/17 07:18:24;;;;;;;66.50;29.77;;;8.70;99.90;;;;;;5056939;28;20048;-64
2023/04/17 07:20:50;;;;;;;61.13;29.58;;;8.70;99.90;;;;;;5041970;28;20045;-64
2023/04/17 07:23:15;;;;;;;59.35;29.08;;;8.80;99.90;;;;;;5049603;28;20033;-64
2023/04/17 07:25:41;;;;;;;62.72;29.92;;;8.70;99.90;;;;;;5048488;28;20448;-64
2023/04/17 07:28:06;;;;;;;63.55;30.35;;;8.80;99.90;;;;;;5033476;28;20460;-64
2023/04/17 07:30:32;;;;;;;64.15;29.92;;;8.80;99.90;;;;;;5056468;28;20115;-64
2023/04/17 07:32:59;;;;;;;57.60;27.17;;;8.90;99.90;;;;;;5054814;28;20119;-65
2023/04/17 07:35:24;;;;;;;59.72;30.02;;;9.00;99.90;;;;;;5046662;28;20038;-65
2023/04/17 07:37:50;;;;;;;60.78;29.83;;;9.00;99.90;;;;;;5053077;28;20135;-64
2023/04/17 07:40:16;;;;;;;64.68;31.58;;;9.10;99.90;;;;;;5049370;28;20033;-64
2023/04/17 07:42:42;;;;;;;59.55;29.33;;;9.10;99.90;;;;;;5050224;28;20045;-65
2023/04/17 07:45:09;;;;;;;60.33;30.80;;;9.10;99.90;;;;;;5044463;28;20047;-64
2023/04/17 07:50:06;;;;;;;63.05;30.50;;;9.20;99.90;;;;;;5050127;28;20394;-66
2023/04/17 07:52:32;;;;;;;59.08;30.67;;;9.20;99.90;;;;;;5049587;28;20041;-66
2023/04/17 07:54:58;;;;;;;57.17;29.58;;;9.30;99.90;;;;;;5046734;28;20033;-66
2023/04/17 07:57:25;;;;;;;60.67;30.52;;;9.30;99.90;;;;;;5048500;28;20056;-66
2023/04/17 07:59:52;;;;;;;62.90;30.55;;;9.30;99.90;;;;;;5032583;28;20049;-66
2023/04/17 08:02:18;;;;;;;58.92;30.95;;;9.40;99.90;;;;;;5048223;28;20048;-66
2023/04/17 08:04:44;;;;;;;57.10;29.85;;;9.50;99.90;;;;;;5049350;28;20037;-66
2023/04/17 08:07:11;;;;;;;59.42;28.83;;;9.50;99.90;;;;;;5050779;28;20098;-66
2023/04/17 08:09:37;;;;;;;62.70;30.52;;;9.60;99.90;;;;;;5055352;28;20111;-66
2023/04/17 08:12:03;;;;;;;56.47;29.00;;;9.60;99.90;;;;;;5062147;28;20056;-66
2023/04/17 08:14:29;;;;;;;56.85;28.23;;;9.70;99.90;;;;;;5044071;28;20415;-65
2023/04/17 08:16:54;;;;;;;57.50;30.52;;;9.70;99.90;;;;;;5045492;28;20124;-66
2023/04/17 08:19:20;;;;;;;54.75;28.45;;;9.70;99.90;;;;;;5052594;28;20045;-66
2023/04/17 08:21:49;;;;;;;53.28;27.73;;;9.80;99.90;;;;;;5056579;28;20110;-66
2023/04/17 08:24:16;;;;;;;56.25;30.58;;;9.80;99.90;;;;;;5049263;28;20068;-67
2023/04/17 08:26:41;;;;;;;56.97;30.30;;;9.90;99.90;;;;;;5046768;28;20136;-66
2023/04/17 08:29:07;;;;;;;54.67;29.58;;;9.90;99.90;;;;;;5056265;28;20127;-66
2023/04/17 08:31:35;;;;;;;53.10;28.48;;;10.00;99.90;;;;;;5046484;28;20608;-66
2023/04/17 08:34:02;;;;;;;53.35;28.48;;;10.00;99.90;;;;;;5046997;28;20124;-66
2023/04/17 08:36:28;;;;;;;60.13;30.35;;;10.10;99.90;;;;;;5052501;28;20079;-66
2023/04/17 08:38:54;;;;;;;61.10;31.90;;;10.10;99.90;;;;;;5050580;28;20045;-66
2023/04/17 08:41:23;;;;;;;50.78;29.33;;;10.20;99.90;;;;;;5059150;28;20770;-66
2023/04/17 08:43:49;;;;;;;62.17;30.60;;;10.20;99.90;;;;;;5049344;28;20041;-66
2023/04/17 08:46:17;;;;;;;54.47;29.10;;;10.30;99.90;;;;;;5050534;28;20080;-66
2023/04/17 08:48:43;;;;;;;58.60;30.30;;;10.40;99.90;;;;;;5050374;28;20033;-67
2023/04/17 08:51:09;;;;;;;59.42;31.23;;;10.40;99.90;;;;;;5064022;28;20032;-66
2023/04/17 08:53:34;;;;;;;52.75;30.75;;;10.50;99.90;;;;;;5041150;28;20041;-66
2023/04/17 08:56:05;;;;;;;56.85;31.08;;;10.60;99.90;;;;;;5051246;28;20033;-66
2023/04/17 08:58:32;;;;;;;54.67;29.55;;;10.70;99.90;;;;;;5050378;28;20121;-66
2023/04/17 09:01:10;;;;;;;54.63;31.27;;;10.80;99.90;;;;;;5052499;28;20495;-66
2023/04/17 09:03:40;;;;;;;56.60;31.17;;;10.90;99.90;;;;;;5049579;28;20356;-66
2023/04/17 09:06:08;;;;;;;56.80;31.60;;;11.00;99.90;;;;;;5048169;28;20525;-66
2023/04/17 09:08:33;;;;;;;59.08;32.95;;;11.00;99.90;;;;;;5066116;28;20121;-65
2023/04/17 09:10:59;;;;;;;52.97;30.95;;;11.10;99.90;;;;;;5050753;28;20119;-66
2023/04/17 09:13:26;;;;;;;56.42;33.67;;;11.10;99.90;;;;;;5062039;28;20563;-66
2023/04/17 09:16:04;;;;;;;60.58;33.95;;;11.20;99.90;;;;;;5073824;28;20120;-66
2023/04/17 09:18:31;;;;;;;56.47;33.42;;;11.30;99.90;;;;;;5045493;28;20044;-66
2023/04/17 09:20:58;;;;;;;58.10;32.60;;;11.40;99.90;;;;;;5050593;28;20033;-65
2023/04/17 09:23:29;;;;;;;55.42;32.97;;;11.50;99.90;;;;;;5050163;28;20041;-66
2023/04/17 09:26:10;;;;;;;51.65;31.17;;;11.60;99.90;;;;;;5051676;28;20052;-66
2023/04/17 09:28:38;;;;;;;;;;;11.70;99.90;;;;;;5060767;28;20049;-66
2023/04/17 09:31:06;;;;;;;55.08;31.05;;;11.70;99.90;;;;;;5054285;28;20386;-66
2023/04/17 09:33:32;;;;;;;47.35;28.95;;;11.80;99.90;;;;;;5061744;28;20033;-66
2023/04/17 09:36:22;;;;;;;44.45;28.58;;;11.90;99.90;;;;;;5063573;28;20036;-66
2023/04/17 09:38:48;;;;;;;48.77;29.90;;;12.00;99.90;;;;;;5049539;28;20052;-66
2023/04/17 09:41:32;;;;;;;51.58;30.50;;;12.10;99.90;;;;;;5029959;28;20048;-65
2023/04/17 09:44:04;;;;;;;44.95;27.50;;;12.20;99.90;;;;;;5049647;28;20041;-66
2023/04/17 09:46:37;;;;;;;42.92;27.75;;;12.30;99.90;;;;;;5052178;28;20406;-66
2023/04/17 09:49:18;;;;;;;44.20;26.98;;;12.40;99.90;;;;;;5061325;28;20075;-66
2023/04/17 09:51:45;;;;;;;44.45;28.15;;;12.40;99.90;;;;;;5053965;28;20041;-65
2023/04/17 09:54:13;;;;;;;41.30;25.52;;;12.40;99.90;;;;;;5051156;28;20033;-66
2023/04/17 09:56:40;;;;;;;39.55;24.65;;;12.50;99.90;;;;;;5051774;28;20162;-66
2023/04/17 09:59:06;;;;;;;43.08;27.50;;;12.40;99.90;;;;;;5052841;28;20051;-65
2023/04/17 10:01:32;;;;;;;42.08;26.67;;;12.50;99.90;;;;;;5049667;28;20032;-65
2023/04/17 10:03:59;;;;;;;39.60;25.13;;;12.70;99.90;;;;;;5056132;28;20502;-65
2023/04/17 10:06:28;;;;;;;33.33;22.40;;;12.90;99.90;;;;;;5052685;28;20049;-66
2023/04/17 10:08:54;;;;;;;37.95;26.00;;;13.00;99.90;;;;;;5042250;28;20551;-66
2023/04/17 10:11:44;;;;;;;36.60;25.25;;;13.10;99.90;;;;;;5049161;28;20036;-66
2023/04/17 10:14:19;;;;;;;32.25;22.20;;;13.20;99.90;;;;;;5043219;28;20041;-65
2023/04/17 10:16:46;;;;;;;33.17;22.45;;;13.20;99.90;;;;;;5046044;28;20119;-65
2023/04/17 10:19:30;;;;;;;33.80;21.23;;;13.20;99.90;;;;;;5055036;28;20044;-66
2023/04/17 10:22:18;;;;;;;31.65;21.45;;;13.20;99.90;;;;;;5064370;28;20036;-66
2023/04/17 10:24:46;;;;;;;27.10;17.08;;;13.20;99.90;;;;;;5037896;28;20092;-65
2023/04/17 10:27:23;;;;;;;25.27;16.85;;;13.30;99.90;;;;;;5049577;28;20163;-65
2023/04/17 10:29:56;;;;;;;26.15;18.92;;;13.50;99.90;;;;;;5049305;28;20176;-65
2023/04/17 10:32:24;;;;;;;30.67;19.02;;;13.70;99.90;;;;;;5053831;28;20084;-65
2023/04/17 10:34:52;;;;;;;26.55;18.45;;;13.90;99.90;;;;;;5051490;28;20072;-65
2023/04/17 10:37:18;;;;;;;24.58;18.05;;;14.20;99.90;;;;;;5043803;28;20036;-65
2023/04/17 10:40:00;;;;;;;25.95;18.60;;;14.40;99.90;;;;;;5049437;28;20093;-64
2023/04/17 10:42:28;;;;;;;24.30;16.98;;;14.60;99.90;;;;;;5043002;28;20403;-65
2023/04/17 10:45:00;;;;;;;24.02;16.15;;;14.60;99.90;;;;;;5052199;28;20518;-65
2023/04/17 10:47:33;;;;;;;18.77;14.75;;;14.40;99.90;;;;;;5049914;28;20568;-65
2023/04/17 10:50:02;;;;;;;23.10;14.65;;;14.20;99.90;;;;;;5060018;28;20037;-65
2023/04/17 10:52:31;;;;;;;21.10;14.40;;;13.90;99.90;;;;;;5050042;28;20116;-65
2023/04/17 10:55:15;;;;;;;20.35;14.32;;;13.80;99.90;;;;;;5035278;28;20113;-65
2023/04/17 10:57:58;;;;;;;20.25;13.75;;;13.80;99.90;;;;;;5058869;28;20454;-65
2023/04/17 11:00:37;;;;;;;19.70;13.35;;;14.20;99.90;;;;;;5057478;28;20043;-65
2023/04/17 11:03:05;;;;;;;18.35;13.82;;;14.40;99.90;;;;;;5049344;28;20037;-65
2023/04/17 11:05:31;;;;;;;19.00;12.82;;;14.60;99.90;;;;;;5049079;28;20036;-65
2023/04/17 11:07:57;;;;;;;20.95;13.02;;;14.90;99.90;;;;;;5047665;28;20048;-65
2023/04/17 11:10:23;;;;;;;22.13;14.18;;;15.10;99.90;;;;;;5048709;28;20068;-64
2023/04/17 11:12:52;;;;;;;20.55;13.23;;;15.20;99.90;;;;;;5052190;28;20071;-64
2023/04/17 11:15:25;;;;;;;17.70;11.88;;;15.20;99.90;;;;;;5050517;28;20376;-65
2023/04/17 11:17:51;;;;;;;18.88;13.63;;;15.10;99.90;;;;;;5049943;28;20246;-64
2023/04/17 11:20:20;;;;;;;18.73;13.40;;;15.10;99.90;;;;;;5050721;28;20037;-65
2023/04/17 11:22:46;;;;;;;19.95;12.00;;;15.20;99.90;;;;;;5055508;28;20494;-65
2023/04/17 11:25:39;;;;;;;18.13;12.82;;;15.00;99.90;;;;;;5049858;28;20029;-64
2023/04/17 11:28:05;;;;;;;18.92;14.18;;;14.80;99.90;;;;;;5046228;28;20084;-65
2023/04/17 11:30:36;;;;;;;19.60;14.05;;;14.60;99.90;;;;;;5049514;28;20060;-64
2023/04/17 11:33:06;;;;;;;22.75;15.48;;;14.60;99.90;;;;;;5056498;28;20047;-64
2023/04/17 11:35:34;;;;;;;20.65;14.52;;;14.50;99.90;;;;;;5067023;28;20132;-64
2023/04/17 11:38:11;;;;;;;21.75;14.90;;;14.50;99.90;;;;;;5048491;28;20037;-65
2023/04/17 11:40:45;;;;;;;21.02;14.98;;;14.50;99.90;;;;;;5049752;28;20036;-65
2023/04/17 11:43:11;;;;;;;20.77;14.80;;;14.70;99.90;;;;;;5048821;28;20040;-65
2023/04/17 11:45:39;;;;;;;20.50;14.35;;;14.90;99.90;;;;;;5049448;28;20052;-65
2023/04/17 11:48:07;;;;;;;19.30;13.55;;;15.20;99.90;;;;;;5060122;28;20040;-64
2023/04/17 11:50:34;;;;;;;19.70;14.07;;;15.40;99.90;;;;;;5048031;28;20090;-64
2023/04/17 11:53:00;;;;;;;18.70;13.90;;;15.40;99.90;;;;;;5042564;28;20631;-64
2023/04/17 11:55:33;;;;;;;20.10;14.65;;;15.50;99.90;;;;;;5044928;28;20514;-64
2023/04/17 11:58:02;;;;;;;19.48;14.50;;;15.50;99.90;;;;;;5054032;28;20056;-64
2023/04/17 12:00:28;;;;;;;20.38;14.27;;;15.50;99.90;;;;;;5051057;28;20075;-63
2023/04/17 12:02:58;;;;;;;20.60;14.48;;;15.40;99.90;;;;;;5049984;28;20040;-63
2023/04/17 12:05:25;;;;;;;23.02;14.23;;;15.40;99.90;;;;;;5043531;28;20033;-63
2023/04/17 12:08:06;;;;;;;22.67;15.52;;;15.20;99.90;;;;;;5037033;28;20722;-63
2023/04/17 12:10:41;;;;;;;19.00;14.50;;;15.00;99.90;;;;;;5053421;28;20441;-64
2023/04/17 12:13:08;;;;;;;22.17;14.15;;;14.90;99.90;;;;;;5056028;28;20375;-64
2023/04/17 12:15:34;;;;;;;19.25;14.75;;;14.70;99.90;;;;;;5055120;28;20048;-63
2023/04/17 12:18:04;;;;;;;20.92;15.00;;;14.90;99.90;;;;;;5055655;28;20601;-63
2023/04/17 12:20:37;;;;;;;25.08;14.98;;;15.10;99.90;;;;;;5055552;28;20441;-63
2023/04/17 12:23:04;;;;;;;21.15;15.30;;;15.30;99.90;;;;;;5054833;28;20033;-63
2023/04/17 12:25:31;;;;;;;20.95;15.57;;;15.30;99.90;;;;;;5055379;28;20040;-64
2023/04/17 12:27:58;;;;;;;24.77;16.75;;;15.20;99.90;;;;;;5055471;28;20053;-64
2023/04/17 12:30:25;;;;;;;22.95;16.02;;;15.20;99.90;;;;;;5037473;28;20041;-64
2023/04/17 12:32:51;;;;;;;25.38;16.77;;;15.10;99.90;;;;;;5054860;28;20033;-64
2023/04/17 12:35:18;;;;;;;18.92;14.40;;;15.10;99.90;;;;;;5054974;28;20399;-64
2023/04/17 12:37:47;;;;;;;22.15;16.08;;;15.20;99.90;;;;;;5055585;28;20048;-64